< < Back
Terminal Aerodrome Forecast


Current Version              Previous Versions:   1  2  3  4  5  6  7  8  9  

Terminal Aerodrome Forecast

418
FTUS44 KMRX 182320
TAFTYS
TAF
KTYS 182320Z 1900/1924 04006KT P6SM BKN100=

Latest METAR

492
SAUS80 KWBC 191500 RRA
MTRTYS
METAR KTYS 191453Z 05008KT 10SM OVC095 14/06 A3016 RMK AO2 SLP209
T01390056 51003


USA.gov is the U.S. government's official web portal to all federal, state and local government web resources and services.